Time;durP1;ratioP1;P1;durP2;ratioP2;P2;SDS_P1;SDS_P2;PMS_P1;PMS_P2;Temp;Humidity;BMP_temperature;BMP_pressure;BME280_temperature;BME280_humidity;BME280_pressure;Samples;Min_cycle;Max_cycle;Signal;HPM_P1;HPM_P2
2023/04/04 00:01:31;;;;;;;3.58;1.27;;;;;;;0.93;86.21;102195.72;5186870;28;20040;-72
2023/04/04 00:04:01;;;;;;;6.05;1.40;;;;;;;0.78;86.04;102185.00;5186263;28;20025;-72
2023/04/04 00:06:31;;;;;;;5.60;1.48;;;;;;;0.73;85.94;102187.41;5187749;28;20471;-71
2023/04/04 00:09:02;;;;;;;8.50;1.52;;;;;;;0.59;87.45;102195.56;5193044;28;20112;-72
2023/04/04 00:11:32;;;;;;;3.90;1.20;;;;;;;0.63;86.55;102193.13;5195537;28;20372;-72
2023/04/04 00:14:04;;;;;;;2.47;1.15;;;;;;;0.70;85.59;102189.91;5162475;28;20495;-71
2023/04/04 00:16:35;;;;;;;6.07;1.70;;;;;;;0.76;86.23;102197.78;5192913;28;20035;-71
2023/04/04 00:19:05;;;;;;;2.75;1.15;;;;;;;0.82;85.34;102207.41;5190924;28;20100;-72
2023/04/04 00:21:35;;;;;;;5.35;1.48;;;;;;;0.70;85.73;102202.78;5199317;28;20247;-71
2023/04/04 00:24:06;;;;;;;5.68;1.42;;;;;;;0.65;85.56;102194.06;5189186;28;20109;-71
2023/04/04 00:26:37;;;;;;;4.70;1.40;;;;;;;0.75;85.74;102198.63;5182307;28;20033;-71
2023/04/04 00:29:07;;;;;;;6.78;1.30;;;;;;;0.88;84.82;102197.31;5182339;28;20033;-71
2023/04/04 00:31:37;;;;;;;5.65;1.20;;;;;;;0.79;84.71;102195.34;5191496;28;20358;-71
2023/04/04 00:34:08;;;;;;;4.28;1.70;;;;;;;0.70;84.60;102202.78;5232894;22;20077;-72
2023/04/04 00:36:38;;;;;;;4.70;1.20;;;;;;;0.89;84.40;102196.47;5156410;28;20030;-72
2023/04/04 00:39:08;;;;;;;4.88;1.40;;;;;;;0.67;83.97;102197.53;5153452;28;20031;-72
2023/04/04 00:41:39;;;;;;;4.18;1.48;;;;;;;0.58;85.75;102194.69;5156791;28;20109;-72
2023/04/04 00:44:10;;;;;;;3.92;1.25;;;;;;;0.50;86.31;102196.16;5146858;28;20401;-72
2023/04/04 00:46:40;;;;;;;4.18;1.45;;;;;;;0.60;86.43;102200.75;5144509;28;20041;-73
2023/04/04 00:49:11;;;;;;;3.90;1.23;;;;;;;0.66;84.95;102188.06;5139478;28;20112;-73
2023/04/04 00:51:41;;;;;;;7.28;1.70;;;;;;;0.55;85.40;102189.44;5118373;28;20031;-73
2023/04/04 00:54:11;;;;;;;3.30;1.27;;;;;;;0.62;85.13;102183.69;5104479;28;20046;-72
2023/04/04 00:56:42;;;;;;;2.95;1.50;;;;;;;0.64;84.11;102188.84;5127799;28;20034;-72
2023/04/04 00:59:14;;;;;;;6.68;1.83;;;;;;;0.54;84.70;102189.41;5134026;28;20389;-72
2023/04/04 01:01:45;;;;;;;3.78;1.20;;;;;;;0.53;84.75;102190.25;5136719;28;20015;-72
2023/04/04 01:04:15;;;;;;;3.67;1.30;;;;;;;0.57;84.46;102185.22;5134605;28;20381;-72
2023/04/04 01:06:46;;;;;;;3.08;1.33;;;;;;;0.71;85.42;102185.66;5137836;28;20026;-74
2023/04/04 01:09:16;;;;;;;4.53;1.65;;;;;;;0.62;84.45;102188.81;5118465;28;20031;-72
2023/04/04 01:11:47;;;;;;;3.60;1.40;;;;;;;0.74;84.79;102178.88;5120168;28;20027;-71
2023/04/04 01:14:17;;;;;;;5.07;1.27;;;;;;;0.47;85.67;102187.47;5134920;28;20042;-73
2023/04/04 01:16:49;;;;;;;6.95;1.35;;;;;;;0.48;85.71;102181.50;5134484;28;20060;-73
2023/04/04 01:19:32;;;;;;;3.53;1.30;;;;;;;0.58;84.84;102183.53;5139583;28;20062;-71
2023/04/04 01:22:05;;;;;;;5.97;1.20;;;;;;;0.64;85.10;102175.97;5134634;28;20019;-72
2023/04/04 01:24:38;;;;;;;2.50;1.20;;;;;;;0.71;85.00;102173.63;5137638;28;20113;-72
2023/04/04 01:27:08;;;;;;;5.13;1.38;;;;;;;0.54;85.19;102169.69;5138594;28;20118;-72
2023/04/04 01:29:38;;;;;;;7.78;1.17;;;;;;;0.63;84.87;102169.97;5131375;28;20110;-72
2023/04/04 01:32:15;;;;;;;5.75;1.50;;;;;;;0.49;84.21;102171.28;5134558;28;20081;-72
2023/04/04 01:34:56;;;;;;;6.90;1.48;;;;;;;0.55;84.03;102174.00;5135116;28;20019;-72
2023/04/04 01:37:36;;;;;;;2.80;0.90;;;;;;;0.47;84.04;102177.19;5135820;28;20480;-73
2023/04/04 01:40:24;;;;;;;3.42;1.20;;;;;;;0.55;85.23;102166.28;5138253;28;20392;-73
2023/04/04 01:42:56;;;;;;;3.45;1.30;;;;;;;0.51;84.82;102167.03;5138770;28;20030;-72
2023/04/04 01:45:28;;;;;;;3.53;1.17;;;;;;;0.49;85.00;102166.13;5138503;28;20408;-73
2023/04/04 01:47:58;;;;;;;3.97;1.17;;;;;;;0.59;84.98;102173.25;5137334;28;20086;-72
2023/04/04 01:50:29;;;;;;;8.32;1.55;;;;;;;0.35;85.09;102166.53;5137996;28;20015;-74
2023/04/04 01:52:59;;;;;;;4.55;1.55;;;;;;;0.42;85.48;102169.31;5140492;28;20034;-72
2023/04/04 01:55:29;;;;;;;4.45;1.08;;;;;;;0.35;85.80;102164.81;5138043;28;20034;-72
2023/04/04 01:58:00;;;;;;;5.68;1.38;;;;;;;0.32;85.71;102162.16;5137130;28;20109;-73
2023/04/04 02:00:30;;;;;;;5.53;1.63;;;;;;;0.34;85.14;102159.63;5139849;28;20069;-72
2023/04/04 02:03:01;;;;;;;4.78;1.27;;;;;;;0.30;85.30;102165.50;5140368;28;20026;-72
2023/04/04 02:05:31;;;;;;;4.03;1.00;;;;;;;0.26;86.09;102167.13;5122937;28;20408;-72
2023/04/04 02:08:02;;;;;;;5.55;1.27;;;;;;;0.26;85.30;102156.84;5139091;28;20038;-73
2023/04/04 02:10:32;;;;;;;5.45;1.15;;;;;;;0.24;85.74;102152.47;5138076;28;20133;-72
2023/04/04 02:13:02;;;;;;;3.45;1.08;;;;;;;0.13;85.77;102157.28;5139296;28;20030;-72
2023/04/04 02:15:34;;;;;;;4.90;1.25;;;;;;;0.21;85.32;102155.81;5143183;28;20062;-72
2023/04/04 02:18:04;;;;;;;5.38;1.20;;;;;;;0.25;84.46;102155.06;5140876;28;20038;-73
2023/04/04 02:20:34;;;;;;;5.32;1.10;;;;;;;0.21;84.65;102153.25;5139514;28;20022;-72
2023/04/04 02:23:05;;;;;;;5.20;1.17;;;;;;;0.23;85.86;102154.16;5143195;28;20114;-72
2023/04/04 02:25:35;;;;;;;4.95;1.42;;;;;;;0.18;85.99;102147.16;5140948;28;20408;-72
2023/04/04 02:28:05;;;;;;;1.90;0.95;;;;;;;0.22;85.87;102144.69;5138522;28;20026;-72
2023/04/04 02:30:36;;;;;;;4.55;0.90;;;;;;;0.14;85.99;102141.03;5141918;28;20077;-73
2023/04/04 02:33:06;;;;;;;2.42;0.80;;;;;;;0.21;86.89;102136.97;5138326;28;20031;-73
2023/04/04 02:35:36;;;;;;;3.00;1.10;;;;;;;0.23;87.05;102128.44;5144324;28;20100;-73
2023/04/04 02:38:06;;;;;;;3.45;1.10;;;;;;;0.10;86.44;102136.63;5141797;28;20412;-71
2023/04/04 02:40:38;;;;;;;1.85;0.95;;;;;;;0.11;87.28;102125.53;5140704;28;20060;-72
2023/04/04 02:43:08;;;;;;;3.70;0.88;;;;;;;-0.03;88.23;102127.63;5119629;28;20492;-72
2023/04/04 02:45:38;;;;;;;7.68;1.10;;;;;;;0.06;88.40;102132.19;5138178;28;20086;-72
2023/04/04 02:48:09;;;;;;;2.30;1.00;;;;;;;0.04;87.88;102128.72;5142449;28;20023;-72
2023/04/04 02:50:39;;;;;;;2.03;0.80;;;;;;;0.00;88.36;102126.88;5140107;28;20027;-72
2023/04/04 02:53:10;;;;;;;3.50;0.95;;;;;;;0.02;88.15;102119.22;5141479;28;20210;-72
2023/04/04 02:55:41;;;;;;;5.68;1.10;;;;;;;0.07;88.46;102123.66;5125954;28;20646;-72
2023/04/04 02:58:11;;;;;;;3.20;0.90;;;;;;;0.11;87.65;102119.50;5121117;28;20034;-72
2023/04/04 03:00:41;;;;;;;1.75;0.70;;;;;;;0.03;87.35;102126.97;5139886;28;20495;-72
2023/04/04 03:03:12;;;;;;;2.35;0.90;;;;;;;-0.12;88.41;102119.59;5141484;28;20436;-71
2023/04/04 03:05:42;;;;;;;2.97;0.95;;;;;;;-0.11;89.55;102118.78;5140282;28;20038;-73
2023/04/04 03:08:13;;;;;;;4.00;0.85;;;;;;;-0.26;88.98;102106.31;5136757;28;20033;-73
2023/04/04 03:10:44;;;;;;;2.47;0.88;;;;;;;-0.32;90.61;102107.81;5142021;28;20054;-72
2023/04/04 03:13:15;;;;;;;5.85;1.15;;;;;;;-0.12;90.54;102109.31;5143121;28;20030;-72
2023/04/04 03:15:45;;;;;;;5.40;0.95;;;;;;;-0.12;89.86;102104.19;5142397;28;20365;-72
2023/04/04 03:18:16;;;;;;;3.72;0.80;;;;;;;-0.12;89.27;102099.06;5138202;28;20037;-72
2023/04/04 03:20:46;;;;;;;5.00;0.95;;;;;;;-0.07;90.32;102107.78;5141575;28;20026;-73
2023/04/04 03:23:16;;;;;;;2.10;0.80;;;;;;;-0.25;90.52;102102.06;5142085;28;20125;-73
2023/04/04 03:25:47;;;;;;;3.67;1.05;;;;;;;-0.27;91.53;102104.59;5143202;28;20027;-73
2023/04/04 03:28:17;;;;;;;3.80;0.98;;;;;;;-0.42;91.40;102105.78;5138522;28;20057;-72
2023/04/04 03:30:47;;;;;;;1.40;0.82;;;;;;;-0.58;92.32;102095.84;5138568;28;20023;-73
2023/04/04 03:33:18;;;;;;;3.63;0.90;;;;;;;-0.48;93.18;102093.63;5138359;28;20062;-73
2023/04/04 03:35:48;;;;;;;5.25;1.13;;;;;;;-0.43;93.59;102093.75;5140887;28;20062;-72
2023/04/04 03:38:18;;;;;;;2.50;0.85;;;;;;;-0.49;94.31;102091.88;5120850;28;20062;-72
2023/04/04 03:40:49;;;;;;;2.92;0.90;;;;;;;-0.61;93.52;102095.72;5150494;28;20037;-72
2023/04/04 03:43:20;;;;;;;3.45;0.90;;;;;;;-0.64;94.67;102093.03;5144022;28;20504;-72
2023/04/04 03:45:50;;;;;;;3.25;1.20;;;;;;;-0.24;93.25;102088.41;5121414;28;20026;-73
2023/04/04 03:48:21;;;;;;;3.65;0.98;;;;;;;-0.48;91.65;102091.06;5139795;28;20041;-74
2023/04/04 03:50:51;;;;;;;2.80;0.90;;;;;;;-0.62;94.31;102109.38;5137827;28;20444;-72
2023/04/04 03:53:21;;;;;;;2.22;0.85;;;;;;;-0.86;94.39;102096.56;5141750;28;20054;-71
2023/04/04 03:55:54;;;;;;;2.03;0.90;;;;;;;-0.93;96.05;102093.78;5137932;28;20026;-72
2023/04/04 03:58:27;;;;;;;1.75;0.70;;;;;;;-0.99;96.78;102085.84;5138513;28;20113;-72
2023/04/04 04:00:57;;;;;;;6.55;1.00;;;;;;;-0.98;97.16;102092.72;5137714;28;20500;-72
2023/04/04 04:03:27;;;;;;;2.17;0.93;;;;;;;-0.95;97.06;102087.69;5140734;28;20129;-73
2023/04/04 04:05:58;;;;;;;2.60;1.13;;;;;;;-1.06;96.88;102089.88;5140758;28;20027;-74
2023/04/04 04:08:29;;;;;;;2.95;1.00;;;;;;;-0.80;96.53;102083.09;5138293;28;20058;-73
2023/04/04 04:11:04;;;;;;;7.65;1.42;;;;;;;-0.79;96.88;102080.59;5140466;28;20120;-73
2023/04/04 04:13:37;;;;;;;7.03;1.10;;;;;;;-0.75;95.40;102079.00;5145794;28;20037;-73
2023/04/04 04:16:08;;;;;;;3.85;0.95;;;;;;;-0.90;95.11;102076.78;5140167;28;20850;-71
2023/04/04 04:18:39;;;;;;;3.45;1.17;;;;;;;-1.02;96.01;102071.25;5123444;28;20031;-73
2023/04/04 04:21:09;;;;;;;3.70;1.15;;;;;;;-1.04;97.76;102079.69;5140651;28;20027;-74
2023/04/04 04:23:39;;;;;;;3.53;0.98;;;;;;;-0.80;97.80;102083.09;5136859;28;20030;-72
2023/04/04 04:26:10;;;;;;;5.78;1.25;;;;;;;-0.88;96.48;102075.13;5145977;28;20037;-72
2023/04/04 04:28:40;;;;;;;4.60;1.30;;;;;;;-0.74;96.53;102076.47;5131776;28;20023;-73
2023/04/04 04:31:11;;;;;;;7.82;1.40;;;;;;;-0.88;94.81;102076.84;5143886;28;20377;-73
2023/04/04 04:33:41;;;;;;;3.60;1.65;;;;;;;-0.99;95.47;102080.72;5141053;28;20118;-72
2023/04/04 04:36:11;;;;;;;6.47;1.40;;;;;;;-1.09;96.22;102082.09;5126427;28;20030;-72
2023/04/04 04:38:42;;;;;;;5.03;1.30;;;;;;;-1.05;96.22;102076.25;5142293;28;20106;-74
2023/04/04 04:41:12;;;;;;;4.53;1.60;;;;;;;-0.85;96.97;102072.69;5140176;28;20570;-73
2023/04/04 04:43:42;;;;;;;3.42;1.75;;;;;;;-0.92;95.81;102083.53;5140003;28;20493;-73
2023/04/04 04:46:13;;;;;;;4.07;1.40;;;;;;;-0.69;96.47;102079.19;5122067;28;20077;-73
2023/04/04 04:48:43;;;;;;;4.15;1.20;;;;;;;-0.69;95.62;102086.91;5136608;28;20199;-73
2023/04/04 04:51:14;;;;;;;3.20;1.13;;;;;;;-0.63;95.86;102082.84;5136895;28;20400;-72
2023/04/04 04:53:44;;;;;;;3.58;1.00;;;;;;;-0.59;94.77;102086.41;5140087;28;20027;-73
2023/04/04 04:56:15;;;;;;;3.78;1.10;;;;;;;-0.27;94.33;102086.59;5139503;28;20081;-73
2023/04/04 04:58:47;;;;;;;3.60;1.00;;;;;;;-0.10;92.48;102087.13;5141135;28;20030;-75
2023/04/04 05:01:17;;;;;;;3.85;1.20;;;;;;;-0.23;92.29;102090.16;5149684;28;20031;-72
2023/04/04 05:03:48;;;;;;;4.13;1.10;;;;;;;-0.26;92.39;102090.03;5136466;28;20031;-71
2023/04/04 05:06:18;;;;;;;3.13;1.17;;;;;;;-0.36;93.69;102095.72;5137240;28;20401;-73
2023/04/04 05:08:48;;;;;;;5.13;1.30;;;;;;;-0.23;93.76;102096.16;5143120;28;20053;-73
2023/04/04 05:11:20;;;;;;;3.00;1.10;;;;;;;-0.31;94.90;102099.28;5151939;28;20022;-73
2023/04/04 05:13:50;;;;;;;2.72;1.27;;;;;;;-0.07;95.54;102100.94;5149566;28;20038;-74
2023/04/04 05:16:21;;;;;;;3.90;1.10;;;;;;;0.19;94.07;102097.50;5143142;28;20037;-73
2023/04/04 05:18:51;;;;;;;2.63;1.10;;;;;;;0.26;93.01;102100.28;5141936;28;20101;-72
2023/04/04 05:21:22;;;;;;;4.30;1.40;;;;;;;-0.20;93.80;102106.50;5144300;28;20041;-72
2023/04/04 05:23:52;;;;;;;4.60;1.35;;;;;;;-0.25;95.67;102107.22;5142377;28;20108;-73
2023/04/04 05:26:23;;;;;;;4.68;1.30;;;;;;;-0.13;97.07;102105.00;5155004;28;20072;-73
2023/04/04 05:28:54;;;;;;;3.40;1.20;;;;;;;0.07;95.54;102108.25;5144767;28;20030;-73
2023/04/04 05:31:24;;;;;;;5.47;1.20;;;;;;;0.00;95.34;102115.75;5143343;28;20027;-72
2023/04/04 05:33:55;;;;;;;2.85;1.23;;;;;;;0.01;94.57;102118.34;5139776;28;20054;-73
2023/04/04 05:36:26;;;;;;;5.68;1.20;;;;;;;0.27;94.62;102106.28;5144127;28;20045;-73
2023/04/04 05:38:57;;;;;;;2.42;1.15;;;;;;;0.38;91.84;102112.63;5125621;28;20351;-73
2023/04/04 05:41:27;;;;;;;2.10;1.08;;;;;;;0.50;92.01;102113.88;5127516;28;20400;-73
2023/04/04 05:43:58;;;;;;;7.47;1.80;;;;;;;0.67;90.91;102119.47;5141159;28;20073;-73
2023/04/04 05:46:29;;;;;;;9.63;1.70;;;;;;;0.60;89.59;102117.56;5142011;28;20030;-73
2023/04/04 05:48:59;;;;;;;5.82;1.17;;;;;;;0.51;91.56;102118.19;5140613;28;20022;-73
2023/04/04 05:51:29;;;;;;;3.00;1.17;;;;;;;0.68;90.92;102119.53;5131271;28;20041;-73
2023/04/04 05:54:00;;;;;;;3.80;1.15;;;;;;;0.53;90.75;102121.66;5138307;28;20034;-73
2023/04/04 05:56:30;;;;;;;2.40;0.75;;;;;;;0.83;90.72;102122.53;5142819;28;20038;-73
2023/04/04 05:59:01;;;;;;;5.90;1.13;;;;;;;0.90;89.05;102121.88;5140405;28;20023;-73
2023/04/04 06:01:31;;;;;;;5.70;1.05;;;;;;;0.88;89.23;102123.53;5139605;28;20548;-73
2023/04/04 06:04:01;;;;;;;10.00;1.30;;;;;;;1.13;89.07;102123.41;5144507;28;20049;-71
2023/04/04 06:06:33;;;;;;;2.92;1.02;;;;;;;1.08;88.18;102119.81;5141578;28;20027;-73
2023/04/04 06:09:03;;;;;;;3.95;0.93;;;;;;;1.11;87.77;102126.75;5140118;28;20366;-73
2023/04/04 06:11:33;;;;;;;2.28;1.10;;;;;;;1.28;89.01;102125.50;5139937;28;20046;-74
2023/04/04 06:14:03;;;;;;;8.80;1.40;;;;;;;1.34;88.67;102123.97;5140122;28;20033;-73
2023/04/04 06:16:35;;;;;;;4.97;1.00;;;;;;;1.10;88.49;102133.59;5143427;28;20027;-73
2023/04/04 06:19:05;;;;;;;2.05;0.80;;;;;;;1.25;89.11;102128.00;5138947;28;20042;-71
2023/04/04 06:21:35;;;;;;;5.88;0.90;;;;;;;1.12;88.83;102131.97;5147840;28;20101;-72
2023/04/04 06:24:06;;;;;;;4.97;1.02;;;;;;;0.78;89.74;102129.28;5137763;28;20030;-72
2023/04/04 06:26:36;;;;;;;5.57;1.27;;;;;;;1.05;90.95;102132.59;5132441;28;20038;-72
2023/04/04 06:29:07;;;;;;;3.97;0.98;;;;;;;0.80;91.06;102130.19;5121798;28;20035;-73
2023/04/04 06:31:37;;;;;;;5.30;1.42;;;;;;;0.95;90.70;102137.47;5142847;28;20047;-73
2023/04/04 06:34:07;;;;;;;3.88;1.10;;;;;;;1.09;89.88;102126.69;5140960;28;20073;-73
2023/04/04 06:36:37;;;;;;;4.70;1.00;;;;;;;1.06;89.75;102134.34;5138533;28;20085;-71
2023/04/04 06:39:08;;;;;;;4.47;1.10;;;;;;;1.03;89.73;102136.84;5123526;28;20034;-72
2023/04/04 06:41:38;;;;;;;4.57;1.20;;;;;;;1.24;89.55;102132.25;5137991;28;20023;-74
2023/04/04 06:44:08;;;;;;;1.75;0.98;;;;;;;1.14;90.24;102140.59;5139673;28;20038;-72
2023/04/04 06:46:39;;;;;;;7.30;1.02;;;;;;;1.45;88.41;102130.28;5142450;28;20023;-73
2023/04/04 06:49:09;;;;;;;4.90;1.10;;;;;;;1.42;88.56;102137.91;5123326;28;20597;-72
2023/04/04 06:51:40;;;;;;;4.40;1.00;;;;;;;1.39;88.76;102145.53;5135910;28;20477;-74
2023/04/04 06:54:10;;;;;;;4.90;1.10;;;;;;;1.53;88.03;102141.63;5143613;28;20037;-72
2023/04/04 06:56:41;;;;;;;6.90;1.10;;;;;;;1.62;88.79;102131.56;5138477;28;20027;-69
2023/04/04 06:59:11;;;;;;;1.98;0.88;;;;;;;2.00;87.07;102130.78;5139052;28;20085;-72
2023/04/04 07:01:42;;;;;;;4.47;1.10;;;;;;;3.43;83.46;102126.94;5143237;28;20050;-73
2023/04/04 07:04:12;;;;;;;5.30;0.82;;;;;;;5.86;74.85;102119.00;5122832;28;20038;-74
2023/04/04 07:06:42;;;;;;;3.30;1.00;;;;;;;8.46;67.05;102101.59;5139951;28;20122;-73
2023/04/04 07:09:13;;;;;;;5.13;0.93;;;;;;;10.66;60.06;102093.94;5147131;28;20027;-73
2023/04/04 07:11:43;;;;;;;4.05;0.98;;;;;;;10.93;55.61;102101.41;5139689;28;20109;-73
2023/04/04 07:14:13;;;;;;;2.25;0.70;;;;;;;11.91;55.01;102097.34;5145178;28;20448;-73
2023/04/04 07:16:44;;;;;;;3.80;1.25;;;;;;;13.11;52.11;102089.78;5125259;28;20295;-73
2023/04/04 07:19:14;;;;;;;2.03;0.75;;;;;;;13.65;51.71;102085.91;5125424;28;20461;-73
2023/04/04 07:21:44;;;;;;;4.28;1.05;;;;;;;11.52;54.48;102092.72;5128168;28;20023;-74
2023/04/04 07:24:15;;;;;;;3.08;0.80;;;;;;;14.05;49.82;102076.16;5144650;28;20130;-74
2023/04/04 07:26:45;;;;;;;3.42;1.10;;;;;;;13.26;51.02;102081.59;5121545;28;20385;-73
2023/04/04 07:29:15;;;;;;;3.05;1.25;;;;;;;10.64;53.41;102098.28;5148066;28;20034;-73
2023/04/04 07:31:46;;;;;;;3.60;1.45;;;;;;;10.11;59.54;102103.19;5139263;28;20554;-74
2023/04/04 07:34:16;;;;;;;3.65;1.25;;;;;;;10.95;57.25;102094.41;5132589;28;20077;-74
2023/04/04 07:36:47;;;;;;;4.00;0.90;;;;;;;11.24;55.32;102095.78;5144107;28;20077;-74
2023/04/04 07:39:17;;;;;;;2.22;0.88;;;;;;;13.69;51.05;102084.91;5150033;28;20277;-74
2023/04/04 07:41:47;;;;;;;1.83;0.70;;;;;;;13.37;52.01;102079.59;5137325;28;20027;-72
2023/04/04 07:44:18;;;;;;;4.90;1.20;;;;;;;11.79;50.70;102089.69;5138420;28;20043;-74
2023/04/04 07:46:48;;;;;;;2.75;0.90;;;;;;;11.80;52.49;102091.41;5139341;28;20027;-74
2023/04/04 07:49:18;;;;;;;1.88;0.70;;;;;;;12.20;53.39;102082.00;5140884;28;20109;-74
2023/04/04 07:51:49;;;;;;;3.83;1.00;;;;;;;9.91;53.94;102105.09;5136169;28;20014;-73
2023/04/04 07:54:19;;;;;;;3.03;0.90;;;;;;;11.71;55.18;102086.34;5137742;28;20027;-71
2023/04/04 07:56:50;;;;;;;2.33;0.70;;;;;;;12.91;49.83;102084.09;5136320;28;20030;-72
2023/04/04 07:59:20;;;;;;;2.33;0.63;;;;;;;12.27;49.26;102090.63;5120910;28;20372;-71
2023/04/04 08:01:51;;;;;;;2.53;0.77;;;;;;;12.79;49.74;102083.47;5122311;28;20400;-70
2023/04/04 08:04:21;;;;;;;3.50;1.05;;;;;;;12.27;51.19;102082.75;5138096;28;20085;-70
2023/04/04 08:06:52;;;;;;;1.67;0.70;;;;;;;14.18;47.71;102072.31;5138037;28;20093;-72
2023/04/04 08:09:22;;;;;;;2.83;0.85;;;;;;;15.72;44.88;102065.91;5137665;28;20636;-72
2023/04/04 08:11:52;;;;;;;2.08;0.70;;;;;;;14.96;44.24;102073.56;5138827;28;20120;-72
2023/04/04 08:14:22;;;;;;;3.03;1.00;;;;;;;10.75;52.00;102094.69;5137611;28;20034;-72
2023/04/04 08:16:53;;;;;;;1.97;0.77;;;;;;;14.25;47.87;102073.88;5138419;28;20051;-72
2023/04/04 08:19:23;;;;;;;4.07;0.80;;;;;;;12.04;48.57;102091.03;5136285;28;20684;-72
2023/04/04 08:21:54;;;;;;;3.65;0.70;;;;;;;12.75;50.83;102076.53;5135924;28;20027;-74
2023/04/04 08:24:24;;;;;;;4.05;1.05;;;;;;;13.40;48.52;102082.13;5139042;28;20039;-73
2023/04/04 08:26:55;;;;;;;2.80;1.00;;;;;;;16.10;45.71;102073.41;5137301;28;20055;-72
2023/04/04 08:29:27;;;;;;;2.65;0.88;;;;;;;16.49;43.66;102064.13;5120449;28;20278;-72
2023/04/04 08:31:58;;;;;;;4.38;1.02;;;;;;;13.70;47.25;102074.38;5119255;28;20061;-72
2023/04/04 08:34:28;;;;;;;4.00;1.60;;;;;;;13.95;47.36;102078.13;5141083;28;20054;-72
2023/04/04 08:36:58;;;;;;;4.78;1.30;;;;;;;15.00;46.62;102076.06;5139272;28;20023;-72
2023/04/04 08:39:29;;;;;;;1.40;0.60;;;;;;;14.10;47.30;102079.50;5122183;28;20073;-72
2023/04/04 08:42:04;;;;;;;3.05;0.80;;;;;;;9.34;54.21;102095.94;5104374;28;20290;-71
2023/04/04 08:44:38;;;;;;;2.95;1.00;;;;;;;9.34;53.69;102095.94;5122501;28;20023;-72
2023/04/04 08:47:09;;;;;;;2.20;0.80;;;;;;;7.22;58.82;102102.41;5120327;28;20027;-71
2023/04/04 08:49:42;;;;;;;5.13;0.95;;;;;;;8.04;56.91;102085.13;5138520;28;20393;-73
2023/04/04 08:52:18;;;;;;;1.80;1.00;;;;;;;7.81;57.42;102092.94;5143640;28;20186;-71
2023/04/04 08:54:50;;;;;;;6.68;1.00;;;;;;;6.59;61.17;102096.13;5125048;28;20400;-71
2023/04/04 08:57:21;;;;;;;1.83;0.80;;;;;;;6.62;62.11;102093.53;5139535;28;20126;-71
2023/04/04 08:59:51;;;;;;;3.88;0.80;;;;;;;6.11;64.08;102092.38;5122730;28;20545;-72
2023/04/04 09:02:37;;;;;;;2.05;0.90;;;;;;;5.92;66.95;102087.94;5143956;28;20018;-71
2023/04/04 09:05:07;;;;;;;1.65;0.77;;;;;;;6.84;62.79;102074.59;5137996;28;20030;-71
2023/04/04 09:07:38;;;;;;;2.30;0.80;;;;;;;9.24;57.37;102070.81;5139954;28;20027;-72
2023/04/04 09:10:12;;;;;;;1.17;0.47;;;;;;;11.04;50.70;102069.00;5142068;28;20066;-70
2023/04/04 09:12:46;;;;;;;3.63;0.50;;;;;;;11.40;50.14;102058.00;5119949;28;20034;-71
2023/04/04 09:15:16;;;;;;;2.17;0.60;;;;;;;12.02;46.92;102058.75;5140827;28;20022;-72
2023/04/04 09:17:47;;;;;;;2.40;0.57;;;;;;;11.83;46.92;102049.47;5121743;28;20030;-72
2023/04/04 09:20:33;;;;;;;1.42;0.52;;;;;;;11.52;49.47;102053.47;5126123;28;20483;-72
2023/04/04 09:23:06;;;;;;;2.78;0.60;;;;;;;14.76;45.57;102035.59;5140365;28;20113;-72
2023/04/04 09:25:41;;;;;;;2.05;0.60;;;;;;;14.63;42.85;102039.47;5141686;28;20027;-72
2023/04/04 09:28:14;;;;;;;1.98;0.80;;;;;;;13.07;46.67;102036.50;5137662;28;20030;-71
2023/04/04 09:30:47;;;;;;;1.48;0.63;;;;;;;11.85;49.73;102042.47;5139169;28;20045;-71
2023/04/04 09:33:20;;;;;;;2.67;0.70;;;;;;;11.22;50.47;102051.28;5141270;28;20043;-71
2023/04/04 09:35:56;;;;;;;2.97;0.70;;;;;;;10.83;51.43;102052.75;5122400;28;20125;-71
2023/04/04 09:38:27;;;;;;;;;;;;;;;10.24;51.90;102050.84;5138920;28;20062;-72
2023/04/04 09:40:58;;;;;;;2.88;1.00;;;;;;;10.12;51.20;102060.53;5139979;28;19913;-72
2023/04/04 09:43:29;;;;;;;2.78;0.65;;;;;;;9.97;50.96;102058.91;5139549;28;20049;-71
2023/04/04 09:46:00;;;;;;;2.70;0.60;;;;;;;9.59;50.20;102057.50;5122564;28;20564;-70
2023/04/04 09:48:32;;;;;;;3.20;0.82;;;;;;;9.13;51.81;102061.31;5138912;28;20389;-70
2023/04/04 09:51:05;;;;;;;1.98;0.60;;;;;;;9.47;53.17;102068.91;5138478;28;20069;-71
2023/04/04 09:53:37;;;;;;;2.65;0.60;;;;;;;9.01;52.84;102053.56;5138909;28;20740;-71
2023/04/04 09:56:07;;;;;;;2.30;0.55;;;;;;;9.44;52.27;102060.22;5137690;28;20073;-71
2023/04/04 09:58:40;;;;;;;1.40;0.68;;;;;;;8.64;54.04;102071.97;5134662;28;20751;-70
2023/04/04 10:01:11;;;;;;;1.92;0.50;;;;;;;8.31;51.90;102070.34;5137306;28;20029;-71
2023/04/04 10:03:42;;;;;;;3.65;0.85;;;;;;;8.01;54.64;102072.13;5138359;28;20053;-71
2023/04/04 10:06:12;;;;;;;1.20;0.50;;;;;;;8.50;55.33;102065.94;5140692;28;20046;-71
2023/04/04 10:08:42;;;;;;;3.22;0.73;;;;;;;8.37;57.04;102065.13;5121383;28;20029;-70
2023/04/04 10:11:28;;;;;;;4.45;0.95;;;;;;;8.24;58.50;102068.63;5140205;28;20031;-71
2023/04/04 10:14:00;;;;;;;0.68;0.30;;;;;;;8.12;56.69;102067.75;5136782;28;20030;-71
2023/04/04 10:16:32;;;;;;;2.33;0.50;;;;;;;8.61;56.07;102059.84;5122079;28;20042;-71
2023/04/04 10:19:06;;;;;;;2.25;0.50;;;;;;;9.46;56.33;102067.16;5137407;28;20030;-71
2023/04/04 10:21:36;;;;;;;2.22;0.60;;;;;;;9.12;54.03;102067.41;5139612;28;20080;-71
2023/04/04 10:24:08;;;;;;;2.97;0.60;;;;;;;9.39;53.68;102062.00;5139079;28;20018;-71
2023/04/04 10:26:39;;;;;;;3.53;0.70;;;;;;;9.34;55.69;102061.19;5121147;28;20141;-71
2023/04/04 10:29:09;;;;;;;5.22;0.68;;;;;;;9.26;55.01;102057.72;5121944;28;20117;-72
2023/04/04 10:31:43;;;;;;;3.58;0.68;;;;;;;9.81;56.08;102054.69;5134047;28;20515;-71
2023/04/04 10:34:35;;;;;;;2.13;0.57;;;;;;;9.06;54.00;102062.22;5121013;28;20068;-71
2023/04/04 10:37:23;;;;;;;2.13;0.45;;;;;;;8.54;55.46;102063.31;5122421;28;20865;-71
2023/04/04 10:40:09;;;;;;;1.40;0.50;;;;;;;7.95;54.60;102059.97;5118985;28;20031;-71
2023/04/04 10:42:43;;;;;;;2.05;0.68;;;;;;;8.04;52.97;102048.69;5137285;28;20445;-72
2023/04/04 10:45:15;;;;;;;2.72;0.52;;;;;;;7.72;53.46;102047.84;5139596;28;20049;-69
2023/04/04 10:47:45;;;;;;;2.10;0.70;;;;;;;8.05;54.29;102048.66;5118361;28;20042;-72
2023/04/04 10:50:16;;;;;;;1.67;0.52;;;;;;;7.79;55.92;102040.03;5139485;28;20030;-70
2023/04/04 10:52:46;;;;;;;1.88;0.60;;;;;;;7.56;55.50;102039.16;5138280;28;20031;-69
2023/04/04 10:55:18;;;;;;;1.85;0.77;;;;;;;7.81;57.05;102034.81;5133011;28;20042;-73
2023/04/04 10:57:51;;;;;;;2.13;0.60;;;;;;;7.45;57.02;102037.44;5123041;28;20169;-70
2023/04/04 11:00:23;;;;;;;1.95;0.45;;;;;;;7.60;54.07;102030.50;5139396;28;20033;-71
2023/04/04 11:03:01;;;;;;;1.13;0.40;;;;;;;7.25;53.75;102033.09;5142708;28;20030;-71
2023/04/04 11:05:33;;;;;;;2.03;0.60;;;;;;;7.57;53.82;102025.31;5140310;28;20027;-69
2023/04/04 11:08:05;;;;;;;3.30;0.65;;;;;;;7.31;53.90;102023.56;5121260;28;20560;-72
2023/04/04 11:10:38;;;;;;;2.28;0.88;;;;;;;7.55;55.53;102016.63;5119948;28;20022;-71
2023/04/04 11:13:12;;;;;;;2.83;0.60;;;;;;;7.54;55.09;102014.03;5125433;28;20031;-70
2023/04/04 11:15:56;;;;;;;2.40;0.57;;;;;;;7.95;55.32;102001.81;5117913;28;20050;-72
2023/04/04 11:18:39;;;;;;;1.70;0.50;;;;;;;8.23;54.75;101988.75;5120135;28;20831;-72
2023/04/04 11:21:22;;;;;;;3.60;0.52;;;;;;;7.78;54.42;101993.19;5136951;28;20030;-71
2023/04/04 11:23:52;;;;;;;2.67;0.70;;;;;;;7.34;55.31;101979.38;5138406;28;20022;-72
2023/04/04 11:26:29;;;;;;;1.23;0.60;;;;;;;7.93;55.71;101987.97;5120716;28;20111;-71
2023/04/04 11:29:01;;;;;;;2.50;0.55;;;;;;;7.84;53.32;101988.00;5135748;28;20278;-70
2023/04/04 11:31:39;;;;;;;1.20;0.40;;;;;;;7.69;53.63;101983.66;5137652;28;20113;-71
2023/04/04 11:34:13;;;;;;;2.13;0.60;;;;;;;7.83;54.25;101976.69;5118508;28;20030;-73
2023/04/04 11:36:44;;;;;;;1.92;0.52;;;;;;;7.97;55.26;101971.44;5137360;28;20161;-71
2023/04/04 11:39:21;;;;;;;1.90;0.70;;;;;;;7.70;56.11;101979.34;5136549;28;20580;-70
2023/04/04 11:42:07;;;;;;;2.78;0.70;;;;;;;7.40;55.47;101981.97;5137868;28;20033;-73
2023/04/04 11:44:59;;;;;;;2.78;0.50;;;;;;;7.33;54.95;101968.09;5121004;28;20029;-71
2023/04/04 11:47:30;;;;;;;2.95;1.30;;;;;;;7.29;55.13;101971.56;5135921;28;20093;-72
2023/04/04 11:50:07;;;;;;;4.32;1.48;;;;;;;7.22;55.77;101965.47;5137315;28;20050;-72
2023/04/04 11:52:37;;;;;;;1.77;0.70;;;;;;;7.40;54.85;101963.75;5136673;28;20030;-72